sensor_id;sensor_type;location;lat;lon;timestamp;pressure;altitude;pressure_sealevel;temperature;humidity
27643;BME280;15053;48.618;10.024;2023-02-28T00:00:17;94697.66;;;-1.34;69.40
27643;BME280;15053;48.618;10.024;2023-02-28T00:02:45;94690.22;;;-1.36;69.45
27643;BME280;15053;48.618;10.024;2023-02-28T00:05:14;94689.44;;;-1.36;69.47
27643;BME280;15053;48.618;10.024;2023-02-28T00:07:41;94691.19;;;-1.37;69.55
27643;BME280;15053;48.618;10.024;2023-02-28T00:10:13;94690.63;;;-1.39;69.47
27643;BME280;15053;48.618;10.024;2023-02-28T00:12:41;94693.75;;;-1.37;69.05
27643;BME280;15053;48.618;10.024;2023-02-28T00:15:09;94695.34;;;-1.36;69.49
27643;BME280;15053;48.618;10.024;2023-02-28T00:17:37;94691.41;;;-1.38;69.35
27643;BME280;15053;48.618;10.024;2023-02-28T00:20:05;94687.50;;;-1.41;69.45
27643;BME280;15053;48.618;10.024;2023-02-28T00:22:37;94681.59;;;-1.41;69.43
27643;BME280;15053;48.618;10.024;2023-02-28T00:25:04;94688.47;;;-1.42;69.23
27643;BME280;15053;48.618;10.024;2023-02-28T00:27:34;94682.38;;;-1.41;69.37
27643;BME280;15053;48.618;10.024;2023-02-28T00:30:04;94676.50;;;-1.41;69.42
27643;BME280;15053;48.618;10.024;2023-02-28T00:32:31;94681.03;;;-1.43;69.33
27643;BME280;15053;48.618;10.024;2023-02-28T00:34:58;94681.78;;;-1.43;69.67
27643;BME280;15053;48.618;10.024;2023-02-28T00:37:25;94674.56;;;-1.46;69.15
27643;BME280;15053;48.618;10.024;2023-02-28T00:39:51;94663.91;;;-1.43;69.25
27643;BME280;15053;48.618;10.024;2023-02-28T00:42:18;94672.16;;;-1.41;69.85
27643;BME280;15053;48.618;10.024;2023-02-28T00:44:46;94673.16;;;-1.42;69.58
27643;BME280;15053;48.618;10.024;2023-02-28T00:47:13;94667.84;;;-1.40;69.83
27643;BME280;15053;48.618;10.024;2023-02-28T00:49:40;94671.16;;;-1.40;69.32
27643;BME280;15053;48.618;10.024;2023-02-28T00:52:08;94672.75;;;-1.39;69.09
27643;BME280;15053;48.618;10.024;2023-02-28T00:54:35;94678.25;;;-1.42;68.83
27643;BME280;15053;48.618;10.024;2023-02-28T00:57:02;94674.91;;;-1.42;69.43
27643;BME280;15053;48.618;10.024;2023-02-28T00:59:30;94681.22;;;-1.45;69.04
27643;BME280;15053;48.618;10.024;2023-02-28T01:01:56;94674.97;;;-1.49;69.06
27643;BME280;15053;48.618;10.024;2023-02-28T01:04:23;94674.75;;;-1.54;68.86
27643;BME280;15053;48.618;10.024;2023-02-28T01:06:50;94668.28;;;-1.50;68.75
27643;BME280;15053;48.618;10.024;2023-02-28T01:09:16;94672.59;;;-1.50;69.01
27643;BME280;15053;48.618;10.024;2023-02-28T01:11:43;94678.69;;;-1.51;69.32
27643;BME280;15053;48.618;10.024;2023-02-28T01:14:15;94673.00;;;-1.53;69.54
27643;BME280;15053;48.618;10.024;2023-02-28T01:16:44;94670.66;;;-1.55;69.51
27643;BME280;15053;48.618;10.024;2023-02-28T01:19:11;94671.44;;;-1.54;69.29
27643;BME280;15053;48.618;10.024;2023-02-28T01:21:38;94667.53;;;-1.57;69.66
27643;BME280;15053;48.618;10.024;2023-02-28T01:24:05;94673.00;;;-1.53;69.38
27643;BME280;15053;48.618;10.024;2023-02-28T01:26:32;94670.66;;;-1.55;69.44
27643;BME280;15053;48.618;10.024;2023-02-28T01:28:59;94668.66;;;-1.53;69.01
27643;BME280;15053;48.618;10.024;2023-02-28T01:31:25;94662.81;;;-1.60;69.28
27643;BME280;15053;48.618;10.024;2023-02-28T01:33:52;94673.22;;;-1.55;69.57
27643;BME280;15053;48.618;10.024;2023-02-28T01:36:21;94669.06;;;-1.56;69.64
27643;BME280;15053;48.618;10.024;2023-02-28T01:38:48;94671.44;;;-1.54;69.21
27643;BME280;15053;48.618;10.024;2023-02-28T01:41:19;94658.50;;;-1.59;69.22
27643;BME280;15053;48.618;10.024;2023-02-28T01:46:13;94670.47;;;-1.60;69.04
27643;BME280;15053;48.618;10.024;2023-02-28T01:48:42;94663.59;;;-1.59;69.88
27643;BME280;15053;48.618;10.024;2023-02-28T01:51:15;94670.66;;;-1.61;69.75
27643;BME280;15053;48.618;10.024;2023-02-28T01:53:53;94668.91;;;-1.61;69.74
27643;BME280;15053;48.618;10.024;2023-02-28T01:56:27;94658.91;;;-1.62;70.01
27643;BME280;15053;48.618;10.024;2023-02-28T01:58:55;94664.00;;;-1.62;70.19
27643;BME280;15053;48.618;10.024;2023-02-28T02:01:23;94655.56;;;-1.63;70.63
27643;BME280;15053;48.618;10.024;2023-02-28T02:03:54;94660.66;;;-1.63;70.40
27643;BME280;15053;48.618;10.024;2023-02-28T02:06:43;94655.56;;;-1.63;71.14
27643;BME280;15053;48.618;10.024;2023-02-28T02:09:11;94653.00;;;-1.63;70.54
27643;BME280;15053;48.618;10.024;2023-02-28T02:11:41;94650.63;;;-1.64;70.91
27643;BME280;15053;48.618;10.024;2023-02-28T02:17:11;94651.44;;;-1.64;71.49
27643;BME280;15053;48.618;10.024;2023-02-28T02:25:30;94655.16;;;-1.66;71.99
27643;BME280;15053;48.618;10.024;2023-02-28T02:36:23;94644.34;;;-1.62;72.63
27643;BME280;15053;48.618;10.024;2023-02-28T02:39:16;94643.97;;;-1.65;72.87
27643;BME280;15053;48.618;10.024;2023-02-28T02:41:51;94646.72;;;-1.67;72.65
27643;BME280;15053;48.618;10.024;2023-02-28T02:44:31;94628.84;;;-1.67;72.43
27643;BME280;15053;48.618;10.024;2023-02-28T02:47:08;94650.28;;;-1.68;72.93
27643;BME280;15053;48.618;10.024;2023-02-28T02:49:38;94646.72;;;-1.67;73.15
27643;BME280;15053;48.618;10.024;2023-02-28T02:52:08;94644.38;;;-1.68;73.12
27643;BME280;15053;48.618;10.024;2023-02-28T02:54:40;94644.56;;;-1.63;73.53
27643;BME280;15053;48.618;10.024;2023-02-28T02:57:11;94646.31;;;-1.64;73.04
27643;BME280;15053;48.618;10.024;2023-02-28T02:59:40;94640.25;;;-1.63;73.38
27643;BME280;15053;48.618;10.024;2023-02-28T03:02:12;94640.41;;;-1.58;73.68
27643;BME280;15053;48.618;10.024;2023-02-28T03:04:43;94639.44;;;-1.57;74.04
27643;BME280;15053;48.618;10.024;2023-02-28T03:07:12;94641.59;;;-1.60;73.21
27643;BME280;15053;48.618;10.024;2023-02-28T03:09:38;94642.97;;;-1.58;73.90
27643;BME280;15053;48.618;10.024;2023-02-28T03:12:09;94642.75;;;-1.56;74.39
27643;BME280;15053;48.618;10.024;2023-02-28T03:15:05;94636.88;;;-1.57;73.63
27643;BME280;15053;48.618;10.024;2023-02-28T03:17:41;94641.78;;;-1.55;73.89
27643;BME280;15053;48.618;10.024;2023-02-28T03:23:09;94643.19;;;-1.59;73.84
27643;BME280;15053;48.618;10.024;2023-02-28T03:28:30;94633.38;;;-1.62;74.25
27643;BME280;15053;48.618;10.024;2023-02-28T03:31:15;94636.91;;;-1.63;74.54
27643;BME280;15053;48.618;10.024;2023-02-28T03:33:50;94632.38;;;-1.61;74.08
27643;BME280;15053;48.618;10.024;2023-02-28T03:36:28;94634.34;;;-1.63;74.31
27643;BME280;15053;48.618;10.024;2023-02-28T03:39:02;94638.09;;;-1.66;73.97
27643;BME280;15053;48.618;10.024;2023-02-28T03:41:34;94632.97;;;-1.66;74.29
27643;BME280;15053;48.618;10.024;2023-02-28T03:44:13;94636.13;;;-1.64;73.95
27643;BME280;15053;48.618;10.024;2023-02-28T03:46:48;94651.44;;;-1.64;74.23
27643;BME280;15053;48.618;10.024;2023-02-28T03:49:23;94650.28;;;-1.68;74.58
27643;BME280;15053;48.618;10.024;2023-02-28T03:51:52;94651.03;;;-1.67;74.04
27643;BME280;15053;48.618;10.024;2023-02-28T03:54:27;94651.44;;;-1.64;74.36
27643;BME280;15053;48.618;10.024;2023-02-28T03:57:20;94648.50;;;-1.67;73.85
27643;BME280;15053;48.618;10.024;2023-02-28T03:59:54;94648.69;;;-1.69;74.20
27643;BME280;15053;48.618;10.024;2023-02-28T04:02:23;94647.91;;;-1.69;74.02
27643;BME280;15053;48.618;10.024;2023-02-28T04:04:49;94646.72;;;-1.67;74.04
27643;BME280;15053;48.618;10.024;2023-02-28T04:07:17;94648.69;;;-1.69;73.61
27643;BME280;15053;48.618;10.024;2023-02-28T04:09:43;94651.25;;;-1.69;73.72
27643;BME280;15053;48.618;10.024;2023-02-28T04:12:10;94652.03;;;-1.68;73.85
27643;BME280;15053;48.618;10.024;2023-02-28T04:14:37;94646.38;;;-1.70;73.88
27643;BME280;15053;48.618;10.024;2023-02-28T04:17:03;94653.22;;;-1.71;74.46
27643;BME280;15053;48.618;10.024;2023-02-28T04:19:30;94653.81;;;-1.69;73.85
27643;BME280;15053;48.618;10.024;2023-02-28T04:21:56;94656.34;;;-1.69;74.07
27643;BME280;15053;48.618;10.024;2023-02-28T04:24:25;94654.38;;;-1.67;74.00
27643;BME280;15053;48.618;10.024;2023-02-28T04:26:54;94656.13;;;-1.61;74.19
27643;BME280;15053;48.618;10.024;2023-02-28T04:29:30;94655.75;;;-1.64;74.05
27643;BME280;15053;48.618;10.024;2023-02-28T04:31:59;94657.09;;;-1.62;73.72
27643;BME280;15053;48.618;10.024;2023-02-28T04:34:27;94654.38;;;-1.67;72.84
27643;BME280;15053;48.618;10.024;2023-02-28T04:36:54;94653.22;;;-1.71;73.39
27643;BME280;15053;48.618;10.024;2023-02-28T04:39:40;94658.91;;;-1.69;73.80
27643;BME280;15053;48.618;10.024;2023-02-28T04:42:07;94657.94;;;-1.68;73.30
27643;BME280;15053;48.618;10.024;2023-02-28T04:44:33;94653.59;;;-1.67;73.47
27643;BME280;15053;48.618;10.024;2023-02-28T04:47:00;94649.88;;;-1.71;73.40
27643;BME280;15053;48.618;10.024;2023-02-28T04:49:26;94659.72;;;-1.75;73.36
27643;BME280;15053;48.618;10.024;2023-02-28T04:51:53;94662.47;;;-1.76;74.11
27643;BME280;15053;48.618;10.024;2023-02-28T04:54:19;94659.13;;;-1.77;73.79
27643;BME280;15053;48.618;10.024;2023-02-28T04:56:46;94655.78;;;-1.77;73.66
27643;BME280;15053;48.618;10.024;2023-02-28T04:59:14;94658.34;;;-1.77;73.83
27643;BME280;15053;48.618;10.024;2023-02-28T05:01:46;94659.13;;;-1.77;74.07
27643;BME280;15053;48.618;10.024;2023-02-28T05:04:13;94657.16;;;-1.75;73.90
27643;BME280;15053;48.618;10.024;2023-02-28T05:06:40;94660.09;;;-1.78;74.15
27643;BME280;15053;48.618;10.024;2023-02-28T05:09:06;94664.03;;;-1.75;73.98
27643;BME280;15053;48.618;10.024;2023-02-28T05:11:34;94652.25;;;-1.76;73.77
27643;BME280;15053;48.618;10.024;2023-02-28T05:14:07;94659.13;;;-1.77;74.03
27643;BME280;15053;48.618;10.024;2023-02-28T05:16:35;94654.22;;;-1.79;73.67
27643;BME280;15053;48.618;10.024;2023-02-28T05:19:02;94656.59;;;-1.77;74.59
27643;BME280;15053;48.618;10.024;2023-02-28T05:21:34;94650.28;;;-1.81;74.24
27643;BME280;15053;48.618;10.024;2023-02-28T05:24:03;94660.31;;;-1.80;74.38
27643;BME280;15053;48.618;10.024;2023-02-28T05:26:31;94653.06;;;-1.83;74.43
27643;BME280;15053;48.618;10.024;2023-02-28T05:28:57;94660.09;;;-1.78;74.49
27643;BME280;15053;48.618;10.024;2023-02-28T05:31:24;94661.88;;;-1.79;74.86
27643;BME280;15053;48.618;10.024;2023-02-28T05:33:51;94656.19;;;-1.81;74.49
27643;BME280;15053;48.618;10.024;2023-02-28T05:36:18;94663.66;;;-1.79;74.25
27643;BME280;15053;48.618;10.024;2023-02-28T05:38:48;94659.31;;;-1.79;74.50
27643;BME280;15053;48.618;10.024;2023-02-28T05:41:16;94661.28;;;-1.81;75.17
27643;BME280;15053;48.618;10.024;2023-02-28T05:43:43;94666.97;;;-1.79;75.04
27643;BME280;15053;48.618;10.024;2023-02-28T05:46:11;94666.78;;;-1.77;74.54
27643;BME280;15053;48.618;10.024;2023-02-28T05:48:40;94665.22;;;-1.78;75.02
27643;BME280;15053;48.618;10.024;2023-02-28T05:51:08;94670.91;;;-1.76;74.34
27643;BME280;15053;48.618;10.024;2023-02-28T05:53:35;94678.97;;;-1.79;74.38
27643;BME280;15053;48.618;10.024;2023-02-28T05:56:02;94676.59;;;-1.81;75.06
27643;BME280;15053;48.618;10.024;2023-02-28T05:58:28;94671.13;;;-1.84;74.40
27643;BME280;15053;48.618;10.024;2023-02-28T06:00:58;94678.19;;;-1.80;74.60
27643;BME280;15053;48.618;10.024;2023-02-28T06:03:25;94676.59;;;-1.81;74.46
27643;BME280;15053;48.618;10.024;2023-02-28T06:05:52;94683.47;;;-1.81;74.95
27643;BME280;15053;48.618;10.024;2023-02-28T06:08:18;94679.75;;;-1.85;74.59
27643;BME280;15053;48.618;10.024;2023-02-28T06:10:45;94680.34;;;-1.83;75.12
27643;BME280;15053;48.618;10.024;2023-02-28T06:13:11;94672.91;;;-1.85;75.30
27643;BME280;15053;48.618;10.024;2023-02-28T06:15:39;94687.03;;;-1.82;74.91
27643;BME280;15053;48.618;10.024;2023-02-28T06:18:05;94684.47;;;-1.82;75.33
27643;BME280;15053;48.618;10.024;2023-02-28T06:20:32;94689.41;;;-1.87;74.59
27643;BME280;15053;48.618;10.024;2023-02-28T06:22:58;94686.44;;;-1.91;75.17
27643;BME280;15053;48.618;10.024;2023-02-28T06:25:26;94688.41;;;-1.86;75.57
27643;BME280;15053;48.618;10.024;2023-02-28T06:27:54;94696.66;;;-1.84;75.18
27643;BME280;15053;48.618;10.024;2023-02-28T06:30:21;94694.88;;;-1.84;75.39
27643;BME280;15053;48.618;10.024;2023-02-28T06:32:53;94694.69;;;-1.82;75.59
27643;BME280;15053;48.618;10.024;2023-02-28T06:35:20;94694.88;;;-1.77;75.87
27643;BME280;15053;48.618;10.024;2023-02-28T06:37:47;94682.91;;;-1.83;75.16
27643;BME280;15053;48.618;10.024;2023-02-28T06:40:14;94702.53;;;-1.77;75.65
27643;BME280;15053;48.618;10.024;2023-02-28T06:42:41;94700.94;;;-1.78;75.50
27643;BME280;15053;48.618;10.024;2023-02-28T06:45:08;94700.38;;;-1.80;75.55
27643;BME280;15053;48.618;10.024;2023-02-28T06:47:36;94703.13;;;-1.82;76.06
27643;BME280;15053;48.618;10.024;2023-02-28T06:50:04;94709.19;;;-1.76;75.45
27643;BME280;15053;48.618;10.024;2023-02-28T06:52:31;94708.41;;;-1.76;75.35
27643;BME280;15053;48.618;10.024;2023-02-28T06:54:57;94710.56;;;-1.73;75.89
27643;BME280;15053;48.618;10.024;2023-02-28T06:57:31;94716.66;;;-1.68;75.09
27643;BME280;15053;48.618;10.024;2023-02-28T06:59:59;94718.59;;;-1.70;75.78
27643;BME280;15053;48.618;10.024;2023-02-28T07:02:26;94723.31;;;-1.67;75.30
27643;BME280;15053;48.618;10.024;2023-02-28T07:04:53;94725.06;;;-1.67;74.98
27643;BME280;15053;48.618;10.024;2023-02-28T07:07:19;94727.44;;;-1.66;75.18
27643;BME280;15053;48.618;10.024;2023-02-28T07:09:46;94730.78;;;-1.65;75.75
27643;BME280;15053;48.618;10.024;2023-02-28T07:12:12;94739.22;;;-1.65;74.96
27643;BME280;15053;48.618;10.024;2023-02-28T07:14:39;94731.34;;;-1.63;75.40
27643;BME280;15053;48.618;10.024;2023-02-28T07:17:09;94739.41;;;-1.60;75.49
27643;BME280;15053;48.618;10.024;2023-02-28T07:19:39;94735.44;;;-1.56;75.40
27643;BME280;15053;48.618;10.024;2023-02-28T07:22:06;94729.94;;;-1.53;75.25
27643;BME280;15053;48.618;10.024;2023-02-28T07:24:33;94726.03;;;-1.55;75.31
27643;BME280;15053;48.618;10.024;2023-02-28T07:26:59;94736.63;;;-1.52;74.38
27643;BME280;15053;48.618;10.024;2023-02-28T07:29:27;94740.75;;;-1.51;74.94
27643;BME280;15053;48.618;10.024;2023-02-28T07:31:53;94731.72;;;-1.47;75.07
27643;BME280;15053;48.618;10.024;2023-02-28T07:34:20;94730.72;;;-1.46;75.04
27643;BME280;15053;48.618;10.024;2023-02-28T07:36:47;94733.28;;;-1.46;74.47
27643;BME280;15053;48.618;10.024;2023-02-28T07:39:13;94732.28;;;-1.45;74.49
27643;BME280;15053;48.618;10.024;2023-02-28T07:41:40;94737.97;;;-1.43;74.27
27643;BME280;15053;48.618;10.024;2023-02-28T07:44:10;94734.63;;;-1.37;74.18
27643;BME280;15053;48.618;10.024;2023-02-28T07:46:37;94740.13;;;-1.33;74.45
27643;BME280;15053;48.618;10.024;2023-02-28T07:49:04;94743.47;;;-1.33;73.98
27643;BME280;15053;48.618;10.024;2023-02-28T07:51:32;94745.63;;;-1.30;73.78
27643;BME280;15053;48.618;10.024;2023-02-28T07:53:59;94744.81;;;-1.30;74.08
27643;BME280;15053;48.618;10.024;2023-02-28T07:56:25;94743.63;;;-1.28;73.81
27643;BME280;15053;48.618;10.024;2023-02-28T07:58:52;94747.75;;;-1.27;73.92
27643;BME280;15053;48.618;10.024;2023-02-28T08:01:18;94744.78;;;-1.24;73.38
27643;BME280;15053;48.618;10.024;2023-02-28T08:03:45;94754.25;;;-1.24;73.31
27643;BME280;15053;48.618;10.024;2023-02-28T08:06:19;94753.06;;;-1.22;73.63
27643;BME280;15053;48.618;10.024;2023-02-28T08:08:46;94755.78;;;-1.16;73.40
27643;BME280;15053;48.618;10.024;2023-02-28T08:11:13;94762.63;;;-1.10;73.25
27643;BME280;15053;48.618;10.024;2023-02-28T08:13:40;94764.19;;;-1.09;73.67
27643;BME280;15053;48.618;10.024;2023-02-28T08:16:08;94767.94;;;-1.05;73.44
27643;BME280;15053;48.618;10.024;2023-02-28T08:18:35;94771.63;;;-1.01;73.37
27643;BME280;15053;48.618;10.024;2023-02-28T08:21:09;94766.72;;;-0.96;73.31
27643;BME280;15053;48.618;10.024;2023-02-28T08:23:36;94754.91;;;-0.97;72.88
27643;BME280;15053;48.618;10.024;2023-02-28T08:26:03;94765.13;;;-0.97;72.71
27643;BME280;15053;48.618;10.024;2023-02-28T08:28:30;94759.78;;;-0.89;72.46
27643;BME280;15053;48.618;10.024;2023-02-28T08:30:56;94765.47;;;-0.87;72.54
27643;BME280;15053;48.618;10.024;2023-02-28T08:33:24;94772.16;;;-0.86;72.00
27643;BME280;15053;48.618;10.024;2023-02-28T08:35:55;94765.88;;;-0.84;72.16
27643;BME280;15053;48.618;10.024;2023-02-28T08:38:23;94755.84;;;-0.85;72.08
27643;BME280;15053;48.618;10.024;2023-02-28T08:40:50;94760.34;;;-0.81;71.65
27643;BME280;15053;48.618;10.024;2023-02-28T08:43:22;94758.19;;;-0.77;72.71
27643;BME280;15053;48.618;10.024;2023-02-28T08:45:54;94754.03;;;-0.72;72.00
27643;BME280;15053;48.618;10.024;2023-02-28T08:48:24;94763.22;;;-0.64;71.41
27643;BME280;15053;48.618;10.024;2023-02-28T08:51:06;94764.97;;;-0.58;71.46
27643;BME280;15053;48.618;10.024;2023-02-28T08:53:35;94767.94;;;-0.61;71.20
27643;BME280;15053;48.618;10.024;2023-02-28T08:56:08;94767.13;;;-0.62;70.80
27643;BME280;15053;48.618;10.024;2023-02-28T08:58:35;94768.50;;;-0.59;71.23
27643;BME280;15053;48.618;10.024;2023-02-28T09:01:10;94765.53;;;-0.56;70.75
27643;BME280;15053;48.618;10.024;2023-02-28T09:03:38;94771.19;;;-0.47;71.37
27643;BME280;15053;48.618;10.024;2023-02-28T09:06:05;94772.56;;;-0.45;70.82
27643;BME280;15053;48.618;10.024;2023-02-28T09:08:32;94773.13;;;-0.43;70.73
27643;BME280;15053;48.618;10.024;2023-02-28T09:10:58;94774.25;;;-0.32;70.49
27643;BME280;15053;48.618;10.024;2023-02-28T09:13:27;94778.31;;;-0.25;71.70
27643;BME280;15053;48.618;10.024;2023-02-28T09:15:57;94773.38;;;-0.20;70.10
27643;BME280;15053;48.618;10.024;2023-02-28T09:18:25;94775.88;;;-0.13;70.67
27643;BME280;15053;48.618;10.024;2023-02-28T09:20:52;94779.38;;;-0.08;69.96
27643;BME280;15053;48.618;10.024;2023-02-28T09:23:19;94779.75;;;-0.04;70.13
27643;BME280;15053;48.618;10.024;2023-02-28T09:25:52;94781.50;;;0.02;69.98
27643;BME280;15053;48.618;10.024;2023-02-28T09:28:19;94780.28;;;0.05;70.31
27643;BME280;15053;48.618;10.024;2023-02-28T09:30:48;94787.56;;;0.08;70.07
27643;BME280;15053;48.618;10.024;2023-02-28T09:33:16;94786.91;;;0.12;69.50
27643;BME280;15053;48.618;10.024;2023-02-28T09:35:42;94784.50;;;0.17;69.50
27643;BME280;15053;48.618;10.024;2023-02-28T09:38:10;94786.47;;;0.22;68.99
27643;BME280;15053;48.618;10.024;2023-02-28T09:40:47;94787.59;;;0.26;69.16
27643;BME280;15053;48.618;10.024;2023-02-28T09:43:15;94786.63;;;0.27;68.35
27643;BME280;15053;48.618;10.024;2023-02-28T09:45:49;94788.16;;;0.28;68.06
27643;BME280;15053;48.618;10.024;2023-02-28T09:48:20;94784.47;;;0.24;67.87
27643;BME280;15053;48.618;10.024;2023-02-28T09:50:51;94795.44;;;0.31;69.06
27643;BME280;15053;48.618;10.024;2023-02-28T09:53:36;94792.41;;;0.40;68.35
27643;BME280;15053;48.618;10.024;2023-02-28T09:56:11;94794.88;;;0.47;67.89
27643;BME280;15053;48.618;10.024;2023-02-28T09:58:49;94798.75;;;0.56;68.77
27643;BME280;15053;48.618;10.024;2023-02-28T10:01:34;94792.16;;;0.67;68.52
27643;BME280;15053;48.618;10.024;2023-02-28T10:04:09;94792.81;;;0.80;67.59
27643;BME280;15053;48.618;10.024;2023-02-28T10:06:46;94792.50;;;0.88;67.27
27643;BME280;15053;48.618;10.024;2023-02-28T10:09:24;94794.97;;;1.01;67.19
27643;BME280;15053;48.618;10.024;2023-02-28T10:11:54;94794.50;;;1.23;68.00
27643;BME280;15053;48.618;10.024;2023-02-28T10:14:26;94790.88;;;1.60;67.16
27643;BME280;15053;48.618;10.024;2023-02-28T10:16:58;94787.53;;;1.89;66.56
27643;BME280;15053;48.618;10.024;2023-02-28T10:19:34;94781.84;;;1.99;64.92
27643;BME280;15053;48.618;10.024;2023-02-28T10:22:11;94784.63;;;2.09;65.16
27643;BME280;15053;48.618;10.024;2023-02-28T10:24:45;94785.34;;;2.27;63.85
27643;BME280;15053;48.618;10.024;2023-02-28T10:27:21;94791.28;;;2.39;62.71
27643;BME280;15053;48.618;10.024;2023-02-28T10:29:53;94779.13;;;2.47;63.04
27643;BME280;15053;48.618;10.024;2023-02-28T10:32:23;94784.81;;;2.60;63.15
27643;BME280;15053;48.618;10.024;2023-02-28T10:34:55;94785.91;;;2.76;63.05
27643;BME280;15053;48.618;10.024;2023-02-28T10:37:23;94793.28;;;2.84;61.36
27643;BME280;15053;48.618;10.024;2023-02-28T10:39:49;94789.47;;;2.98;61.81
27643;BME280;15053;48.618;10.024;2023-02-28T10:42:21;94786.72;;;3.28;61.60
27643;BME280;15053;48.618;10.024;2023-02-28T10:44:48;94785.97;;;3.55;61.24
27643;BME280;15053;48.618;10.024;2023-02-28T10:47:16;94787.34;;;3.75;60.76
27643;BME280;15053;48.618;10.024;2023-02-28T10:49:50;94793.31;;;3.92;60.23
27643;BME280;15053;48.618;10.024;2023-02-28T10:52:37;94791.84;;;4.12;59.40
27643;BME280;15053;48.618;10.024;2023-02-28T10:55:25;94800.91;;;4.32;58.98
27643;BME280;15053;48.618;10.024;2023-02-28T10:57:52;94796.41;;;4.55;58.54
27643;BME280;15053;48.618;10.024;2023-02-28T11:00:22;94792.94;;;4.66;57.56
27643;BME280;15053;48.618;10.024;2023-02-28T11:02:49;94789.63;;;4.88;57.21
27643;BME280;15053;48.618;10.024;2023-02-28T11:05:31;94789.59;;;5.04;57.50
27643;BME280;15053;48.618;10.024;2023-02-28T11:08:10;94791.31;;;4.99;56.50
27643;BME280;15053;48.618;10.024;2023-02-28T11:10:38;94787.75;;;5.00;56.56
27643;BME280;15053;48.618;10.024;2023-02-28T11:13:05;94789.28;;;5.01;55.61
27643;BME280;15053;48.618;10.024;2023-02-28T11:15:33;94791.50;;;5.14;56.27
27643;BME280;15053;48.618;10.024;2023-02-28T11:18:14;94783.72;;;5.30;55.35
27643;BME280;15053;48.618;10.024;2023-02-28T11:20:51;94787.03;;;5.26;54.93
27643;BME280;15053;48.618;10.024;2023-02-28T11:23:19;94786.72;;;5.22;54.83
27643;BME280;15053;48.618;10.024;2023-02-28T11:25:55;94794.22;;;5.24;54.98
27643;BME280;15053;48.618;10.024;2023-02-28T11:28:29;94790.75;;;5.35;55.06
27643;BME280;15053;48.618;10.024;2023-02-28T11:36:16;94789.59;;;5.48;54.15
27643;BME280;15053;48.618;10.024;2023-02-28T11:38:47;94786.78;;;5.49;54.13
27643;BME280;15053;48.618;10.024;2023-02-28T11:41:33;94783.66;;;5.47;53.88
27643;BME280;15053;48.618;10.024;2023-02-28T11:46:59;94791.94;;;5.49;53.96
27643;BME280;15053;48.618;10.024;2023-02-28T11:49:37;94787.69;;;5.60;54.02
27643;BME280;15053;48.618;10.024;2023-02-28T11:55:27;94788.91;;;5.79;55.16
27643;BME280;15053;48.618;10.024;2023-02-28T11:58:12;94781.56;;;5.92;54.15
27643;BME280;15053;48.618;10.024;2023-02-28T12:05:49;94789.31;;;6.19;51.79
27643;BME280;15053;48.618;10.024;2023-02-28T12:08:38;94784.59;;;6.11;52.38
27643;BME280;15053;48.618;10.024;2023-02-28T12:11:27;94785.25;;;6.02;51.75
27643;BME280;15053;48.618;10.024;2023-02-28T12:14:40;94786.34;;;6.06;52.13
27643;BME280;15053;48.618;10.024;2023-02-28T12:17:25;94779.78;;;6.25;52.00
27643;BME280;15053;48.618;10.024;2023-02-28T12:20:05;94782.50;;;6.40;51.94
27643;BME280;15053;48.618;10.024;2023-02-28T12:23:01;94777.44;;;6.55;52.10
27643;BME280;15053;48.618;10.024;2023-02-28T12:25:54;94767.63;;;6.62;51.50
27643;BME280;15053;48.618;10.024;2023-02-28T12:28:30;94772.63;;;6.74;51.22
27643;BME280;15053;48.618;10.024;2023-02-28T12:30:59;94766.50;;;6.85;50.58
27643;BME280;15053;48.618;10.024;2023-02-28T12:33:33;94761.41;;;7.00;51.78
27643;BME280;15053;48.618;10.024;2023-02-28T12:36:05;94759.63;;;7.10;51.21
27643;BME280;15053;48.618;10.024;2023-02-28T12:38:50;94760.44;;;7.11;50.42
27643;BME280;15053;48.618;10.024;2023-02-28T12:41:32;94765.50;;;6.96;49.34
27643;BME280;15053;48.618;10.024;2023-02-28T12:44:04;94765.50;;;6.91;49.49
27643;BME280;15053;48.618;10.024;2023-02-28T12:46:33;94762.50;;;6.67;49.92
27643;BME280;15053;48.618;10.024;2023-02-28T12:49:09;94766.63;;;6.63;49.80
27643;BME280;15053;48.618;10.024;2023-02-28T12:51:37;94758.66;;;6.70;50.37
27643;BME280;15053;48.618;10.024;2023-02-28T12:59:30;94767.88;;;6.97;49.09
27643;BME280;15053;48.618;10.024;2023-02-28T13:02:21;94763.66;;;6.86;48.72
27643;BME280;15053;48.618;10.024;2023-02-28T13:07:36;94757.03;;;7.05;49.41
27643;BME280;15053;48.618;10.024;2023-02-28T13:10:08;94746.50;;;7.27;49.00
27643;BME280;15053;48.618;10.024;2023-02-28T13:12:35;94749.06;;;7.22;48.96
27643;BME280;15053;48.618;10.024;2023-02-28T13:15:07;94748.50;;;7.10;47.89
27643;BME280;15053;48.618;10.024;2023-02-28T13:17:40;94747.19;;;7.02;48.01
27643;BME280;15053;48.618;10.024;2023-02-28T13:20:26;94738.97;;;7.26;49.23
27643;BME280;15053;48.618;10.024;2023-02-28T13:22:54;94750.44;;;7.50;48.41
27643;BME280;15053;48.618;10.024;2023-02-28T13:27:50;94746.34;;;7.64;48.68
27643;BME280;15053;48.618;10.024;2023-02-28T13:38:50;94736.59;;;8.26;46.67
27643;BME280;15053;48.618;10.024;2023-02-28T13:44:21;94738.41;;;8.31;46.38
27643;BME280;15053;48.618;10.024;2023-02-28T13:51:52;94738.13;;;8.07;45.59
27643;BME280;15053;48.618;10.024;2023-02-28T13:54:23;94741.75;;;8.06;46.43
27643;BME280;15053;48.618;10.024;2023-02-28T13:56:58;94739.66;;;8.13;46.65
27643;BME280;15053;48.618;10.024;2023-02-28T13:59:43;94740.22;;;8.20;46.04
27643;BME280;15053;48.618;10.024;2023-02-28T14:07:49;94743.81;;;8.60;45.92
27643;BME280;15053;48.618;10.024;2023-02-28T14:10:26;94740.97;;;8.81;45.08
27643;BME280;15053;48.618;10.024;2023-02-28T14:12:58;94741.19;;;8.85;45.04
27643;BME280;15053;48.618;10.024;2023-02-28T14:15:36;94740.41;;;8.95;44.61
27643;BME280;15053;48.618;10.024;2023-02-28T14:20:43;94754.72;;;8.72;43.89
27643;BME280;15053;48.618;10.024;2023-02-28T14:23:42;94753.19;;;8.61;44.03
27643;BME280;15053;48.618;10.024;2023-02-28T14:26:46;94757.34;;;8.52;44.21
27643;BME280;15053;48.618;10.024;2023-02-28T14:34:48;94756.56;;;8.41;44.52